GBOYI EGGP-EGCM
Flight info
| Callsign | GBOYI |
|---|---|
| Flight time | 0h 36m |
| Altitude | 3000 |
| Route | POL DCT IDDAH |
| Aircraft | PA24/L-SDGRY/S |
Departure
| Time | 2026-04-25 19:29 |
|---|---|
| Airport | Liverpool John Lennon Airport (EGGP) |
Arrival
| Time | 2026-04-25 20:05 |
|---|---|
| Airport | Leeds East Airport (EGCM) |
| Time | Latitude | Longitude | Altitude | Speed | Heading |
|---|---|---|---|---|---|
| 2026-04-25 19:13 | 53.33747 | -2.83612 | 83 ft | 0 kts | 85° |
| 2026-04-25 19:23 | 53.33747 | -2.83611 | 83 ft | 1 kts | 87° |
| 2026-04-25 19:23 | 53.33716 | -2.83635 | 82 ft | 17 kts | 242° |
| 2026-04-25 19:24 | 53.33641 | -2.83804 | 76 ft | 15 kts | 174° |
| 2026-04-25 19:24 | 53.33588 | -2.83692 | 76 ft | 13 kts | 87° |
| 2026-04-25 19:24 | 53.33522 | -2.83631 | 74 ft | 0 kts | 176° |
| 2026-04-25 19:27 | 53.33466 | -2.83624 | 72 ft | 12 kts | 175° |
| 2026-04-25 19:27 | 53.33424 | -2.83665 | 72 ft | 1 kts | 268° |
| 2026-04-25 19:28 | 53.33417 | -2.83840 | 75 ft | 44 kts | 265° |
| 2026-04-25 19:28 | 53.33377 | -2.84616 | 160 ft | 83 kts | 268° |
| 2026-04-25 19:28 | 53.33327 | -2.85699 | 333 ft | 103 kts | 270° |
| 2026-04-25 19:28 | 53.33297 | -2.86964 | 532 ft | 113 kts | 270° |
| 2026-04-25 19:29 | 53.33322 | -2.88286 | 726 ft | 117 kts | 289° |
| 2026-04-25 19:29 | 53.33932 | -2.89153 | 915 ft | 123 kts | 343° |
| 2026-04-25 19:29 | 53.34767 | -2.88974 | 1111 ft | 127 kts | 30° |
| 2026-04-25 19:29 | 53.35395 | -2.87916 | 1311 ft | 129 kts | 39° |
| 2026-04-25 19:30 | 53.36197 | -2.87289 | 1515 ft | 129 kts | 14° |
| 2026-04-25 19:30 | 53.37069 | -2.86943 | 1721 ft | 129 kts | 13° |
| 2026-04-25 19:30 | 53.37947 | -2.86595 | 1920 ft | 130 kts | 13° |
| 2026-04-25 19:30 | 53.38854 | -2.86242 | 2012 ft | 140 kts | 13° |
| 2026-04-25 19:31 | 53.39827 | -2.85861 | 2020 ft | 147 kts | 13° |
| 2026-04-25 19:31 | 53.40838 | -2.85463 | 2025 ft | 151 kts | 13° |
| 2026-04-25 19:31 | 53.41864 | -2.85058 | 2024 ft | 152 kts | 13° |
| 2026-04-25 19:31 | 53.42901 | -2.84653 | 2026 ft | 153 kts | 13° |
| 2026-04-25 19:32 | 53.43937 | -2.84243 | 2040 ft | 152 kts | 13° |
| 2026-04-25 19:32 | 53.44955 | -2.83836 | 2039 ft | 150 kts | 13° |
| 2026-04-25 19:32 | 53.45966 | -2.83434 | 2036 ft | 149 kts | 14° |
| 2026-04-25 19:32 | 53.46632 | -2.83168 | 2035 ft | 149 kts | 13° |
| 2026-04-25 19:33 | 53.47976 | -2.82633 | 2031 ft | 148 kts | 13° |
| 2026-04-25 19:33 | 53.48980 | -2.82231 | 2030 ft | 148 kts | 13° |
| 2026-04-25 19:33 | 53.49983 | -2.81824 | 2029 ft | 148 kts | 14° |
| 2026-04-25 19:33 | 53.50986 | -2.81419 | 2029 ft | 148 kts | 14° |
| 2026-04-25 19:34 | 53.51990 | -2.81016 | 2032 ft | 148 kts | 14° |
| 2026-04-25 19:34 | 53.52993 | -2.80610 | 2031 ft | 148 kts | 13° |
| 2026-04-25 19:34 | 53.53994 | -2.80203 | 2031 ft | 148 kts | 14° |
| 2026-04-25 19:34 | 53.54997 | -2.79794 | 2031 ft | 148 kts | 13° |
| 2026-04-25 19:35 | 53.55997 | -2.79384 | 2033 ft | 147 kts | 15° |
| 2026-04-25 19:35 | 53.56757 | -2.78338 | 2018 ft | 145 kts | 64° |
| 2026-04-25 19:35 | 53.57107 | -2.76748 | 2028 ft | 146 kts | 69° |
| 2026-04-25 19:35 | 53.57490 | -2.75168 | 2030 ft | 146 kts | 67° |
| 2026-04-25 19:36 | 53.57896 | -2.73601 | 2032 ft | 146 kts | 66° |
| 2026-04-25 19:36 | 53.58308 | -2.72036 | 2034 ft | 147 kts | 66° |
| 2026-04-25 19:36 | 53.58722 | -2.70466 | 2034 ft | 147 kts | 66° |
| 2026-04-25 19:36 | 53.59136 | -2.68897 | 2036 ft | 147 kts | 66° |
| 2026-04-25 19:37 | 53.59549 | -2.67330 | 2034 ft | 146 kts | 66° |
| 2026-04-25 19:37 | 53.59961 | -2.65764 | 2033 ft | 146 kts | 66° |
| 2026-04-25 19:37 | 53.60375 | -2.64202 | 2032 ft | 146 kts | 66° |
| 2026-04-25 19:37 | 53.60786 | -2.62634 | 2032 ft | 146 kts | 66° |
| 2026-04-25 19:38 | 53.61195 | -2.61065 | 2033 ft | 147 kts | 68° |
| 2026-04-25 19:38 | 53.61602 | -2.59492 | 2033 ft | 147 kts | 67° |
| 2026-04-25 19:38 | 53.62011 | -2.57942 | 2039 ft | 143 kts | 69° |
| 2026-04-25 19:38 | 53.62414 | -2.56409 | 2034 ft | 142 kts | 69° |
| 2026-04-25 19:39 | 53.62814 | -2.54889 | 2036 ft | 142 kts | 68° |
| 2026-04-25 19:39 | 53.63209 | -2.53388 | 2035 ft | 139 kts | 67° |
| 2026-04-25 19:39 | 53.63603 | -2.51890 | 2036 ft | 140 kts | 68° |
| 2026-04-25 19:39 | 53.64000 | -2.50376 | 2039 ft | 142 kts | 68° |
| 2026-04-25 19:40 | 53.64398 | -2.48856 | 2039 ft | 141 kts | 68° |
| 2026-04-25 19:40 | 53.64794 | -2.47342 | 2043 ft | 142 kts | 68° |
| 2026-04-25 19:40 | 53.65194 | -2.45826 | 2040 ft | 141 kts | 67° |
| 2026-04-25 19:40 | 53.65594 | -2.44301 | 2041 ft | 143 kts | 67° |
| 2026-04-25 19:41 | 53.65990 | -2.42769 | 2045 ft | 143 kts | 68° |
| 2026-04-25 19:41 | 53.66389 | -2.41227 | 2042 ft | 144 kts | 68° |
| 2026-04-25 19:41 | 53.66789 | -2.39688 | 2039 ft | 142 kts | 68° |
| 2026-04-25 19:41 | 53.66918 | -2.39194 | 2039 ft | 141 kts | 68° |
| 2026-04-25 19:42 | 53.67568 | -2.36696 | 2041 ft | 140 kts | 68° |
| 2026-04-25 19:42 | 53.67960 | -2.35185 | 2043 ft | 142 kts | 68° |
| 2026-04-25 19:42 | 53.68362 | -2.33640 | 2045 ft | 145 kts | 68° |
| 2026-04-25 19:42 | 53.68767 | -2.32085 | 2042 ft | 144 kts | 68° |
| 2026-04-25 19:43 | 53.69164 | -2.30549 | 2039 ft | 143 kts | 68° |
| 2026-04-25 19:43 | 53.69562 | -2.29018 | 2039 ft | 142 kts | 68° |
| 2026-04-25 19:43 | 53.69958 | -2.27491 | 2056 ft | 142 kts | 68° |
| 2026-04-25 19:43 | 53.70354 | -2.25958 | 2054 ft | 143 kts | 67° |
| 2026-04-25 19:44 | 53.70751 | -2.24423 | 2057 ft | 144 kts | 68° |
| 2026-04-25 19:44 | 53.71153 | -2.22869 | 2053 ft | 144 kts | 68° |
| 2026-04-25 19:44 | 53.71551 | -2.21327 | 2055 ft | 143 kts | 68° |
| 2026-04-25 19:44 | 53.71953 | -2.19773 | 2056 ft | 145 kts | 68° |
| 2026-04-25 19:45 | 53.72348 | -2.18245 | 2054 ft | 138 kts | 68° |
| 2026-04-25 19:45 | 53.72727 | -2.16777 | 2056 ft | 136 kts | 70° |
| 2026-04-25 19:45 | 53.73099 | -2.15326 | 2064 ft | 135 kts | 70° |
| 2026-04-25 19:45 | 53.73476 | -2.13857 | 2049 ft | 137 kts | 70° |
| 2026-04-25 19:46 | 53.73847 | -2.12417 | 2058 ft | 132 kts | 70° |
| 2026-04-25 19:46 | 53.74215 | -2.10990 | 2058 ft | 132 kts | 70° |
| 2026-04-25 19:46 | 53.74533 | -2.09533 | 2054 ft | 133 kts | 84° |
| 2026-04-25 19:46 | 53.74434 | -2.07958 | 2054 ft | 135 kts | 97° |
| 2026-04-25 19:47 | 53.74343 | -2.06396 | 2072 ft | 134 kts | 87° |
| 2026-04-25 19:47 | 53.74437 | -2.04824 | 2071 ft | 135 kts | 84° |
| 2026-04-25 19:47 | 53.74513 | -2.03226 | 2080 ft | 137 kts | 85° |
| 2026-04-25 19:47 | 53.74573 | -2.01640 | 2111 ft | 132 kts | 86° |
| 2026-04-25 19:48 | 53.74628 | -2.00073 | 2066 ft | 134 kts | 86° |
| 2026-04-25 19:48 | 53.74681 | -1.98504 | 2066 ft | 135 kts | 86° |
| 2026-04-25 19:48 | 53.74735 | -1.96911 | 2076 ft | 137 kts | 86° |
| 2026-04-25 19:48 | 53.74791 | -1.95291 | 2079 ft | 139 kts | 86° |
| 2026-04-25 19:49 | 53.74845 | -1.93675 | 2068 ft | 137 kts | 86° |
| 2026-04-25 19:49 | 53.74863 | -1.93134 | 2068 ft | 136 kts | 86° |
| 2026-04-25 19:49 | 53.74986 | -1.90493 | 2070 ft | 138 kts | 75° |
| 2026-04-25 19:49 | 53.75647 | -1.89318 | 2071 ft | 143 kts | 35° |
| 2026-04-25 19:50 | 53.77475 | -1.87934 | 2066 ft | 145 kts | 27° |
| 2026-04-25 19:50 | 53.78401 | -1.87250 | 2067 ft | 145 kts | 28° |
| 2026-04-25 19:50 | 53.79325 | -1.86575 | 2066 ft | 143 kts | 28° |
| 2026-04-25 19:51 | 53.80192 | -1.85788 | 2063 ft | 142 kts | 38° |
| 2026-04-25 19:51 | 53.80994 | -1.84809 | 2065 ft | 142 kts | 39° |
| 2026-04-25 19:51 | 53.81772 | -1.83783 | 2065 ft | 142 kts | 44° |
| 2026-04-25 19:51 | 53.82452 | -1.82614 | 2064 ft | 138 kts | 52° |
| 2026-04-25 19:52 | 53.83080 | -1.81381 | 2060 ft | 138 kts | 52° |
| 2026-04-25 19:52 | 53.83669 | -1.80097 | 2063 ft | 139 kts | 56° |
| 2026-04-25 19:52 | 53.84256 | -1.78801 | 2064 ft | 139 kts | 56° |
| 2026-04-25 19:52 | 53.84847 | -1.77508 | 2063 ft | 138 kts | 55° |
| 2026-04-25 19:53 | 53.85436 | -1.76221 | 2065 ft | 138 kts | 56° |
| 2026-04-25 19:53 | 53.86029 | -1.74933 | 2061 ft | 138 kts | 57° |
| 2026-04-25 19:53 | 53.86504 | -1.73564 | 2061 ft | 136 kts | 66° |
| 2026-04-25 19:53 | 53.86917 | -1.72115 | 2063 ft | 137 kts | 66° |
| 2026-04-25 19:54 | 53.87350 | -1.70688 | 2061 ft | 136 kts | 65° |
| 2026-04-25 19:54 | 53.87786 | -1.69266 | 2062 ft | 136 kts | 65° |
| 2026-04-25 19:54 | 53.88203 | -1.67827 | 2060 ft | 136 kts | 65° |
| 2026-04-25 19:54 | 53.88341 | -1.67338 | 2062 ft | 136 kts | 66° |
| 2026-04-25 19:55 | 53.88873 | -1.64873 | 2057 ft | 134 kts | 95° |
| 2026-04-25 19:55 | 53.88476 | -1.63446 | 2063 ft | 137 kts | 121° |
| 2026-04-25 19:55 | 53.87903 | -1.62142 | 2065 ft | 139 kts | 122° |
| 2026-04-25 19:55 | 53.87335 | -1.60823 | 2067 ft | 137 kts | 121° |
| 2026-04-25 19:56 | 53.86774 | -1.59510 | 2068 ft | 138 kts | 122° |
| 2026-04-25 19:56 | 53.86209 | -1.58182 | 2063 ft | 140 kts | 123° |
| 2026-04-25 19:56 | 53.85643 | -1.56854 | 2063 ft | 139 kts | 121° |
| 2026-04-25 19:56 | 53.85069 | -1.55513 | 2061 ft | 142 kts | 122° |
| 2026-04-25 19:57 | 53.84493 | -1.54160 | 2061 ft | 141 kts | 121° |
| 2026-04-25 19:57 | 53.83917 | -1.52810 | 2065 ft | 141 kts | 121° |
| 2026-04-25 19:57 | 53.83535 | -1.51914 | 2068 ft | 142 kts | 120° |
| 2026-04-25 19:57 | 53.82955 | -1.50552 | 2067 ft | 143 kts | 122° |
| 2026-04-25 19:58 | 53.82366 | -1.49181 | 2071 ft | 145 kts | 122° |
| 2026-04-25 19:58 | 53.81773 | -1.47794 | 2071 ft | 145 kts | 121° |
| 2026-04-25 19:58 | 53.81178 | -1.46402 | 2075 ft | 147 kts | 123° |
| 2026-04-25 19:58 | 53.80576 | -1.44994 | 2075 ft | 148 kts | 121° |
| 2026-04-25 19:59 | 53.79976 | -1.43584 | 2081 ft | 148 kts | 122° |
| 2026-04-25 19:59 | 53.79378 | -1.42187 | 2079 ft | 145 kts | 122° |
| 2026-04-25 19:59 | 53.78785 | -1.40805 | 2080 ft | 145 kts | 121° |
| 2026-04-25 19:59 | 53.78197 | -1.39433 | 2078 ft | 143 kts | 121° |
| 2026-04-25 20:00 | 53.77623 | -1.38098 | 2071 ft | 136 kts | 120° |
| 2026-04-25 20:00 | 53.77253 | -1.37236 | 2075 ft | 133 kts | 122° |
| 2026-04-25 20:00 | 53.76913 | -1.35380 | 2074 ft | 127 kts | 77° |
| 2026-04-25 20:00 | 53.77281 | -1.34100 | 2052 ft | 117 kts | 56° |
| 2026-04-25 20:01 | 53.78199 | -1.32067 | 1895 ft | 91 kts | 57° |
| 2026-04-25 20:01 | 53.78532 | -1.31222 | 1672 ft | 84 kts | 55° |
| 2026-04-25 20:01 | 53.78874 | -1.30514 | 1578 ft | 79 kts | 55° |
| 2026-04-25 20:02 | 53.79200 | -1.29718 | 1509 ft | 87 kts | 57° |
| 2026-04-25 20:02 | 53.79535 | -1.28880 | 1307 ft | 87 kts | 58° |
| 2026-04-25 20:02 | 53.79885 | -1.28035 | 1200 ft | 84 kts | 56° |
| 2026-04-25 20:02 | 53.80199 | -1.27301 | 1068 ft | 72 kts | 55° |
| 2026-04-25 20:03 | 53.80490 | -1.26664 | 985 ft | 65 kts | 60° |
| 2026-04-25 20:03 | 53.80742 | -1.26002 | 883 ft | 70 kts | 55° |
| 2026-04-25 20:03 | 53.81028 | -1.25333 | 794 ft | 69 kts | 56° |
| 2026-04-25 20:03 | 53.81307 | -1.24682 | 749 ft | 63 kts | 53° |
| 2026-04-25 20:04 | 53.81565 | -1.24031 | 578 ft | 67 kts | 57° |
| 2026-04-25 20:04 | 53.81814 | -1.23435 | 456 ft | 64 kts | 55° |
| 2026-04-25 20:04 | 53.82094 | -1.22783 | 406 ft | 69 kts | 55° |
| 2026-04-25 20:04 | 53.82362 | -1.22141 | 318 ft | 63 kts | 53° |
| 2026-04-25 20:05 | 53.82619 | -1.21520 | 231 ft | 65 kts | 52° |
| 2026-04-25 20:05 | 53.82884 | -1.20890 | 125 ft | 65 kts | 53° |
| 2026-04-25 20:05 | 53.83139 | -1.20287 | 43 ft | 62 kts | 53° |
| 2026-04-25 20:05 | 53.83360 | -1.19760 | 25 ft | 45 kts | 54° |
| 2026-04-25 20:06 | 53.83463 | -1.19523 | 24 ft | 10 kts | 124° |
| 2026-04-25 20:06 | 53.83415 | -1.19627 | 25 ft | 20 kts | 234° |
| 2026-04-25 20:06 | 53.83323 | -1.19846 | 26 ft | 22 kts | 237° |
| 2026-04-25 20:06 | 53.83361 | -1.19954 | 25 ft | 13 kts | 325° |
| 2026-04-25 20:07 | 53.83442 | -1.20045 | 25 ft | 10 kts | 324° |
| 2026-04-25 20:07 | 53.83436 | -1.20069 | 25 ft | 0 kts | 155° |